sensor_id;sensor_type;location;lat;lon;timestamp;pressure;altitude;pressure_sealevel;temperature
34023;BMP280;20673;48.980;8.138;2023-12-04T00:01:47;100360.01;;;-4.46
34023;BMP280;20673;48.980;8.138;2023-12-04T00:04:14;100359.71;;;-4.49
34023;BMP280;20673;48.980;8.138;2023-12-04T00:06:42;100349.97;;;-4.49
34023;BMP280;20673;48.980;8.138;2023-12-04T00:09:08;100350.08;;;-4.49
34023;BMP280;20673;48.980;8.138;2023-12-04T00:11:34;100337.48;;;-4.48
34023;BMP280;20673;48.980;8.138;2023-12-04T00:14:00;100327.42;;;-4.46
34023;BMP280;20673;48.980;8.138;2023-12-04T00:16:27;100327.76;;;-4.50
34023;BMP280;20673;48.980;8.138;2023-12-04T00:18:53;100319.91;;;-4.49
34023;BMP280;20673;48.980;8.138;2023-12-04T00:21:19;100319.34;;;-4.51
34023;BMP280;20673;48.980;8.138;2023-12-04T00:23:45;100322.65;;;-4.53
34023;BMP280;20673;48.980;8.138;2023-12-04T00:26:12;100318.13;;;-4.55
34023;BMP280;20673;48.980;8.138;2023-12-04T00:28:39;100318.07;;;-4.61
34023;BMP280;20673;48.980;8.138;2023-12-04T00:31:05;100307.34;;;-4.57
34023;BMP280;20673;48.980;8.138;2023-12-04T00:33:32;100302.82;;;-4.59
34023;BMP280;20673;48.980;8.138;2023-12-04T00:35:58;100291.64;;;-4.62
34023;BMP280;20673;48.980;8.138;2023-12-04T00:38:24;100283.61;;;-4.64
34023;BMP280;20673;48.980;8.138;2023-12-04T00:40:50;100282.72;;;-4.61
34023;BMP280;20673;48.980;8.138;2023-12-04T00:43:16;100283.60;;;-4.61
34023;BMP280;20673;48.980;8.138;2023-12-04T00:45:42;100274.04;;;-4.62
34023;BMP280;20673;48.980;8.138;2023-12-04T00:48:08;100276.23;;;-4.60
34023;BMP280;20673;48.980;8.138;2023-12-04T00:50:34;100274.29;;;-4.60
34023;BMP280;20673;48.980;8.138;2023-12-04T00:53:00;100276.53;;;-4.56
34023;BMP280;20673;48.980;8.138;2023-12-04T00:55:27;100276.87;;;-4.54
34023;BMP280;20673;48.980;8.138;2023-12-04T00:57:53;100273.45;;;-4.52
34023;BMP280;20673;48.980;8.138;2023-12-04T01:00:19;100275.63;;;-4.47
34023;BMP280;20673;48.980;8.138;2023-12-04T01:02:45;100276.36;;;-4.50
34023;BMP280;20673;48.980;8.138;2023-12-04T01:05:11;100279.77;;;-4.50
34023;BMP280;20673;48.980;8.138;2023-12-04T01:07:37;100270.93;;;-4.54
34023;BMP280;20673;48.980;8.138;2023-12-04T01:10:04;100263.58;;;-4.54
34023;BMP280;20673;48.980;8.138;2023-12-04T01:12:30;100265.27;;;-4.55
34023;BMP280;20673;48.980;8.138;2023-12-04T01:14:56;100263.75;;;-4.55
34023;BMP280;20673;48.980;8.138;2023-12-04T01:17:22;100266.89;;;-4.55
34023;BMP280;20673;48.980;8.138;2023-12-04T01:19:49;100260.03;;;-4.56
34023;BMP280;20673;48.980;8.138;2023-12-04T01:22:15;100261.62;;;-4.58
34023;BMP280;20673;48.980;8.138;2023-12-04T01:24:41;100255.33;;;-4.62
34023;BMP280;20673;48.980;8.138;2023-12-04T01:27:08;100243.25;;;-4.58
34023;BMP280;20673;48.980;8.138;2023-12-04T01:29:34;100233.36;;;-4.59
34023;BMP280;20673;48.980;8.138;2023-12-04T01:32:00;100226.53;;;-4.61
34023;BMP280;20673;48.980;8.138;2023-12-04T01:34:26;100224.53;;;-4.63
34023;BMP280;20673;48.980;8.138;2023-12-04T01:36:52;100225.18;;;-4.67
34023;BMP280;20673;48.980;8.138;2023-12-04T01:39:18;100219.35;;;-4.68
34023;BMP280;20673;48.980;8.138;2023-12-04T01:41:44;100216.75;;;-4.67
34023;BMP280;20673;48.980;8.138;2023-12-04T01:44:10;100215.23;;;-4.68
34023;BMP280;20673;48.980;8.138;2023-12-04T01:46:37;100214.90;;;-4.72
34023;BMP280;20673;48.980;8.138;2023-12-04T01:49:04;100209.03;;;-4.75
34023;BMP280;20673;48.980;8.138;2023-12-04T01:51:31;100206.42;;;-4.79
34023;BMP280;20673;48.980;8.138;2023-12-04T01:54:00;100201.56;;;-4.80
34023;BMP280;20673;48.980;8.138;2023-12-04T01:56:29;100197.83;;;-4.78
34023;BMP280;20673;48.980;8.138;2023-12-04T01:58:56;100198.54;;;-4.71
34023;BMP280;20673;48.980;8.138;2023-12-04T02:01:23;100191.75;;;-4.71
34023;BMP280;20673;48.980;8.138;2023-12-04T02:03:50;100193.43;;;-4.72
34023;BMP280;20673;48.980;8.138;2023-12-04T02:06:17;100203.25;;;-4.69
34023;BMP280;20673;48.980;8.138;2023-12-04T02:08:47;100212.86;;;-4.68
34023;BMP280;20673;48.980;8.138;2023-12-04T02:11:14;100209.62;;;-4.68
34023;BMP280;20673;48.980;8.138;2023-12-04T02:13:40;100209.95;;;-4.68
34023;BMP280;20673;48.980;8.138;2023-12-04T02:16:09;100213.52;;;-4.65
34023;BMP280;20673;48.980;8.138;2023-12-04T02:18:37;100208.16;;;-4.63
34023;BMP280;20673;48.980;8.138;2023-12-04T02:21:04;100199.72;;;-4.62
34023;BMP280;20673;48.980;8.138;2023-12-04T02:23:30;100190.97;;;-4.63
34023;BMP280;20673;48.980;8.138;2023-12-04T02:26:01;100184.06;;;-4.62
34023;BMP280;20673;48.980;8.138;2023-12-04T02:28:32;100174.35;;;-4.60
34023;BMP280;20673;48.980;8.138;2023-12-04T02:31:04;100169.87;;;-4.60
34023;BMP280;20673;48.980;8.138;2023-12-04T02:33:32;100160.04;;;-4.55
34023;BMP280;20673;48.980;8.138;2023-12-04T02:36:00;100153.70;;;-4.54
34023;BMP280;20673;48.980;8.138;2023-12-04T02:38:28;100152.25;;;-4.50
34023;BMP280;20673;48.980;8.138;2023-12-04T02:40:55;100145.81;;;-4.47
34023;BMP280;20673;48.980;8.138;2023-12-04T02:43:21;100149.95;;;-4.47
34023;BMP280;20673;48.980;8.138;2023-12-04T02:45:48;100142.29;;;-4.42
34023;BMP280;20673;48.980;8.138;2023-12-04T02:48:14;100137.22;;;-4.44
34023;BMP280;20673;48.980;8.138;2023-12-04T02:50:40;100131.17;;;-4.39
34023;BMP280;20673;48.980;8.138;2023-12-04T02:53:06;100130.98;;;-4.37
34023;BMP280;20673;48.980;8.138;2023-12-04T02:55:32;100126.28;;;-4.37
34023;BMP280;20673;48.980;8.138;2023-12-04T02:57:58;100119.56;;;-4.36
34023;BMP280;20673;48.980;8.138;2023-12-04T03:00:24;100115.68;;;-4.38
34023;BMP280;20673;48.980;8.138;2023-12-04T03:02:50;100107.40;;;-4.37
34023;BMP280;20673;48.980;8.138;2023-12-04T03:05:16;100109.00;;;-4.34
34023;BMP280;20673;48.980;8.138;2023-12-04T03:07:43;100110.79;;;-4.35
34023;BMP280;20673;48.980;8.138;2023-12-04T03:10:09;100108.50;;;-4.30
34023;BMP280;20673;48.980;8.138;2023-12-04T03:12:35;100106.92;;;-4.27
34023;BMP280;20673;48.980;8.138;2023-12-04T03:15:01;100100.68;;;-4.27
34023;BMP280;20673;48.980;8.138;2023-12-04T03:17:27;100097.34;;;-4.24
34023;BMP280;20673;48.980;8.138;2023-12-04T03:19:54;100093.61;;;-4.23
34023;BMP280;20673;48.980;8.138;2023-12-04T03:22:20;100095.06;;;-4.23
34023;BMP280;20673;48.980;8.138;2023-12-04T03:24:46;100090.37;;;-4.24
34023;BMP280;20673;48.980;8.138;2023-12-04T03:27:12;100098.87;;;-4.24
34023;BMP280;20673;48.980;8.138;2023-12-04T03:29:38;100109.58;;;-4.23
34023;BMP280;20673;48.980;8.138;2023-12-04T03:32:05;100113.12;;;-4.21
34023;BMP280;20673;48.980;8.138;2023-12-04T03:34:31;100119.51;;;-4.18
34023;BMP280;20673;48.980;8.138;2023-12-04T03:36:57;100110.75;;;-4.16
34023;BMP280;20673;48.980;8.138;2023-12-04T03:39:23;100110.97;;;-4.14
34023;BMP280;20673;48.980;8.138;2023-12-04T03:41:49;100112.79;;;-4.10
34023;BMP280;20673;48.980;8.138;2023-12-04T03:44:15;100113.75;;;-4.07
34023;BMP280;20673;48.980;8.138;2023-12-04T03:46:41;100117.06;;;-4.04
34023;BMP280;20673;48.980;8.138;2023-12-04T03:49:07;100112.01;;;-4.03
34023;BMP280;20673;48.980;8.138;2023-12-04T03:51:33;100109.81;;;-4.00
34023;BMP280;20673;48.980;8.138;2023-12-04T03:54:00;100109.62;;;-3.96
34023;BMP280;20673;48.980;8.138;2023-12-04T03:56:26;100108.31;;;-3.97
34023;BMP280;20673;48.980;8.138;2023-12-04T03:58:52;100100.54;;;-3.96
34023;BMP280;20673;48.980;8.138;2023-12-04T04:01:18;100099.68;;;-3.93
34023;BMP280;20673;48.980;8.138;2023-12-04T04:03:44;100096.61;;;-3.92
34023;BMP280;20673;48.980;8.138;2023-12-04T04:06:11;100092.22;;;-3.92
34023;BMP280;20673;48.980;8.138;2023-12-04T04:08:38;100094.87;;;-3.88
34023;BMP280;20673;48.980;8.138;2023-12-04T04:11:04;100092.32;;;-3.87
34023;BMP280;20673;48.980;8.138;2023-12-04T04:13:30;100093.93;;;-3.87
34023;BMP280;20673;48.980;8.138;2023-12-04T04:15:56;100090.91;;;-3.84
34023;BMP280;20673;48.980;8.138;2023-12-04T04:18:22;100091.04;;;-3.81
34023;BMP280;20673;48.980;8.138;2023-12-04T04:20:48;100086.84;;;-3.80
34023;BMP280;20673;48.980;8.138;2023-12-04T04:23:15;100098.74;;;-3.78
34023;BMP280;20673;48.980;8.138;2023-12-04T04:25:41;100102.62;;;-3.75
34023;BMP280;20673;48.980;8.138;2023-12-04T04:28:07;100102.79;;;-3.75
34023;BMP280;20673;48.980;8.138;2023-12-04T04:30:33;100100.72;;;-3.74
34023;BMP280;20673;48.980;8.138;2023-12-04T04:32:59;100104.11;;;-3.71
34023;BMP280;20673;48.980;8.138;2023-12-04T04:35:25;100101.43;;;-3.71
34023;BMP280;20673;48.980;8.138;2023-12-04T04:37:51;100099.32;;;-3.70
34023;BMP280;20673;48.980;8.138;2023-12-04T04:40:18;100092.01;;;-3.71
34023;BMP280;20673;48.980;8.138;2023-12-04T04:42:44;100090.15;;;-3.72
34023;BMP280;20673;48.980;8.138;2023-12-04T04:45:10;100083.25;;;-3.70
34023;BMP280;20673;48.980;8.138;2023-12-04T04:47:36;100079.76;;;-3.70
34023;BMP280;20673;48.980;8.138;2023-12-04T04:50:03;100070.74;;;-3.70
34023;BMP280;20673;48.980;8.138;2023-12-04T04:52:29;100070.08;;;-3.69
34023;BMP280;20673;48.980;8.138;2023-12-04T04:54:55;100059.72;;;-3.64
34023;BMP280;20673;48.980;8.138;2023-12-04T04:57:21;100057.28;;;-3.64
34023;BMP280;20673;48.980;8.138;2023-12-04T04:59:47;100055.62;;;-3.62
34023;BMP280;20673;48.980;8.138;2023-12-04T05:02:13;100053.84;;;-3.60
34023;BMP280;20673;48.980;8.138;2023-12-04T05:04:39;100047.79;;;-3.57
34023;BMP280;20673;48.980;8.138;2023-12-04T05:07:06;100049.25;;;-3.56
34023;BMP280;20673;48.980;8.138;2023-12-04T05:09:32;100049.35;;;-3.52
34023;BMP280;20673;48.980;8.138;2023-12-04T05:11:58;100050.06;;;-3.50
34023;BMP280;20673;48.980;8.138;2023-12-04T05:14:24;100045.76;;;-3.48
34023;BMP280;20673;48.980;8.138;2023-12-04T05:16:50;100043.37;;;-3.47
34023;BMP280;20673;48.980;8.138;2023-12-04T05:19:16;100033.87;;;-3.46
34023;BMP280;20673;48.980;8.138;2023-12-04T05:21:42;100026.89;;;-3.46
34023;BMP280;20673;48.980;8.138;2023-12-04T05:24:08;100022.84;;;-3.47
34023;BMP280;20673;48.980;8.138;2023-12-04T05:26:34;100017.70;;;-3.46
34023;BMP280;20673;48.980;8.138;2023-12-04T05:29:00;100021.16;;;-3.50
34023;BMP280;20673;48.980;8.138;2023-12-04T05:31:27;100017.00;;;-3.47
34023;BMP280;20673;48.980;8.138;2023-12-04T05:33:53;100025.67;;;-3.45
34023;BMP280;20673;48.980;8.138;2023-12-04T05:36:19;100018.24;;;-3.43
34023;BMP280;20673;48.980;8.138;2023-12-04T05:38:45;100015.94;;;-3.42
34023;BMP280;20673;48.980;8.138;2023-12-04T05:41:11;100014.55;;;-3.40
34023;BMP280;20673;48.980;8.138;2023-12-04T05:43:37;100010.06;;;-3.38
34023;BMP280;20673;48.980;8.138;2023-12-04T05:46:04;100006.48;;;-3.37
34023;BMP280;20673;48.980;8.138;2023-12-04T05:48:30;100008.17;;;-3.37
34023;BMP280;20673;48.980;8.138;2023-12-04T05:50:56;100009.29;;;-3.36
34023;BMP280;20673;48.980;8.138;2023-12-04T05:53:22;100008.06;;;-3.34
34023;BMP280;20673;48.980;8.138;2023-12-04T05:55:48;100006.25;;;-3.33
34023;BMP280;20673;48.980;8.138;2023-12-04T05:58:14;100002.00;;;-3.35
34023;BMP280;20673;48.980;8.138;2023-12-04T06:00:41;99997.47;;;-3.33
34023;BMP280;20673;48.980;8.138;2023-12-04T06:03:07;99992.92;;;-3.32
34023;BMP280;20673;48.980;8.138;2023-12-04T06:05:33;99986.19;;;-3.32
34023;BMP280;20673;48.980;8.138;2023-12-04T06:07:59;99976.78;;;-3.32
34023;BMP280;20673;48.980;8.138;2023-12-04T06:10:25;99979.69;;;-3.32
34023;BMP280;20673;48.980;8.138;2023-12-04T06:12:51;99976.58;;;-3.30
34023;BMP280;20673;48.980;8.138;2023-12-04T06:15:17;99969.56;;;-3.28
34023;BMP280;20673;48.980;8.138;2023-12-04T06:17:43;99965.48;;;-3.26
34023;BMP280;20673;48.980;8.138;2023-12-04T06:20:11;99955.87;;;-3.24
34023;BMP280;20673;48.980;8.138;2023-12-04T06:22:38;99952.61;;;-3.23
34023;BMP280;20673;48.980;8.138;2023-12-04T06:25:05;99946.56;;;-3.21
34023;BMP280;20673;48.980;8.138;2023-12-04T06:27:32;99947.58;;;-3.18
34023;BMP280;20673;48.980;8.138;2023-12-04T06:29:59;99943.93;;;-3.19
34023;BMP280;20673;48.980;8.138;2023-12-04T06:32:26;99939.98;;;-3.20
34023;BMP280;20673;48.980;8.138;2023-12-04T06:34:53;99933.29;;;-3.18
34023;BMP280;20673;48.980;8.138;2023-12-04T06:37:21;99926.65;;;-3.16
34023;BMP280;20673;48.980;8.138;2023-12-04T06:39:50;99914.83;;;-3.13
34023;BMP280;20673;48.980;8.138;2023-12-04T06:42:18;99916.78;;;-3.13
34023;BMP280;20673;48.980;8.138;2023-12-04T06:44:45;99914.64;;;-3.10
34023;BMP280;20673;48.980;8.138;2023-12-04T06:47:12;99917.40;;;-3.10
34023;BMP280;20673;48.980;8.138;2023-12-04T06:49:40;99917.26;;;-3.07
34023;BMP280;20673;48.980;8.138;2023-12-04T06:52:06;99910.17;;;-3.05
34023;BMP280;20673;48.980;8.138;2023-12-04T06:54:32;99907.36;;;-3.02
34023;BMP280;20673;48.980;8.138;2023-12-04T06:56:58;99918.29;;;-2.99
34023;BMP280;20673;48.980;8.138;2023-12-04T06:59:24;99916.18;;;-2.99
34023;BMP280;20673;48.980;8.138;2023-12-04T07:01:50;99915.56;;;-2.96
34023;BMP280;20673;48.980;8.138;2023-12-04T07:04:16;99909.24;;;-2.92
34023;BMP280;20673;48.980;8.138;2023-12-04T07:06:44;99911.72;;;-2.91
34023;BMP280;20673;48.980;8.138;2023-12-04T07:09:10;99924.86;;;-2.87
34023;BMP280;20673;48.980;8.138;2023-12-04T07:11:36;99928.72;;;-2.85
34023;BMP280;20673;48.980;8.138;2023-12-04T07:14:02;99928.89;;;-2.85
34023;BMP280;20673;48.980;8.138;2023-12-04T07:16:29;99918.95;;;-2.84
34023;BMP280;20673;48.980;8.138;2023-12-04T07:18:55;99922.59;;;-2.83
34023;BMP280;20673;48.980;8.138;2023-12-04T07:21:21;99922.95;;;-2.81
34023;BMP280;20673;48.980;8.138;2023-12-04T07:23:47;99917.30;;;-2.78
34023;BMP280;20673;48.980;8.138;2023-12-04T07:26:13;99921.61;;;-2.77
34023;BMP280;20673;48.980;8.138;2023-12-04T07:28:39;99915.54;;;-2.74
34023;BMP280;20673;48.980;8.138;2023-12-04T07:31:06;99917.28;;;-2.77
34023;BMP280;20673;48.980;8.138;2023-12-04T07:33:32;99907.76;;;-2.76
34023;BMP280;20673;48.980;8.138;2023-12-04T07:35:59;99910.00;;;-2.74
34023;BMP280;20673;48.980;8.138;2023-12-04T07:38:25;99913.33;;;-2.72
34023;BMP280;20673;48.980;8.138;2023-12-04T07:40:51;99905.93;;;-2.69
34023;BMP280;20673;48.980;8.138;2023-12-04T07:43:17;99891.99;;;-2.66
34023;BMP280;20673;48.980;8.138;2023-12-04T07:45:43;99904.41;;;-2.66
34023;BMP280;20673;48.980;8.138;2023-12-04T07:48:09;99911.95;;;-2.64
34023;BMP280;20673;48.980;8.138;2023-12-04T07:50:35;99895.84;;;-2.64
34023;BMP280;20673;48.980;8.138;2023-12-04T07:53:03;99891.20;;;-2.62
34023;BMP280;20673;48.980;8.138;2023-12-04T07:55:29;99905.40;;;-2.60
34023;BMP280;20673;48.980;8.138;2023-12-04T07:57:55;99905.54;;;-2.56
34023;BMP280;20673;48.980;8.138;2023-12-04T08:00:22;99904.26;;;-2.50
34023;BMP280;20673;48.980;8.138;2023-12-04T08:02:52;99891.62;;;-2.50
34023;BMP280;20673;48.980;8.138;2023-12-04T08:05:18;99884.25;;;-2.47
34023;BMP280;20673;48.980;8.138;2023-12-04T08:07:44;99864.29;;;-2.45
34023;BMP280;20673;48.980;8.138;2023-12-04T08:10:11;99858.73;;;-2.44
34023;BMP280;20673;48.980;8.138;2023-12-04T08:12:37;99865.78;;;-2.37
34023;BMP280;20673;48.980;8.138;2023-12-04T08:15:05;99859.65;;;-2.32
34023;BMP280;20673;48.980;8.138;2023-12-04T08:17:31;99863.46;;;-2.31
34023;BMP280;20673;48.980;8.138;2023-12-04T08:19:57;99864.72;;;-2.25
34023;BMP280;20673;48.980;8.138;2023-12-04T08:22:24;99861.86;;;-2.23
34023;BMP280;20673;48.980;8.138;2023-12-04T08:24:50;99861.89;;;-2.17
34023;BMP280;20673;48.980;8.138;2023-12-04T08:27:16;99854.71;;;-2.17
34023;BMP280;20673;48.980;8.138;2023-12-04T08:29:42;99858.05;;;-2.12
34023;BMP280;20673;48.980;8.138;2023-12-04T08:32:08;99851.55;;;-2.08
34023;BMP280;20673;48.980;8.138;2023-12-04T08:34:34;99855.45;;;-2.03
34023;BMP280;20673;48.980;8.138;2023-12-04T08:37:01;99854.12;;;-1.98
34023;BMP280;20673;48.980;8.138;2023-12-04T08:39:27;99849.12;;;-1.93
34023;BMP280;20673;48.980;8.138;2023-12-04T08:41:53;99845.60;;;-1.92
34023;BMP280;20673;48.980;8.138;2023-12-04T08:44:19;99843.37;;;-1.87
34023;BMP280;20673;48.980;8.138;2023-12-04T08:46:45;99844.50;;;-1.82
34023;BMP280;20673;48.980;8.138;2023-12-04T08:49:11;99846.84;;;-1.81
34023;BMP280;20673;48.980;8.138;2023-12-04T08:51:37;99838.36;;;-1.77
34023;BMP280;20673;48.980;8.138;2023-12-04T08:54:04;99847.26;;;-1.74
34023;BMP280;20673;48.980;8.138;2023-12-04T08:56:30;99855.03;;;-1.72
34023;BMP280;20673;48.980;8.138;2023-12-04T08:58:56;99855.97;;;-1.71
34023;BMP280;20673;48.980;8.138;2023-12-04T09:01:23;99851.12;;;-1.72
34023;BMP280;20673;48.980;8.138;2023-12-04T09:03:51;99852.64;;;-1.71
34023;BMP280;20673;48.980;8.138;2023-12-04T09:06:17;99866.21;;;-1.68
34023;BMP280;20673;48.980;8.138;2023-12-04T09:08:43;99867.45;;;-1.66
34023;BMP280;20673;48.980;8.138;2023-12-04T09:11:10;99876.68;;;-1.64
34023;BMP280;20673;48.980;8.138;2023-12-04T09:13:36;99882.40;;;-1.61
34023;BMP280;20673;48.980;8.138;2023-12-04T09:16:02;99887.58;;;-1.59
34023;BMP280;20673;48.980;8.138;2023-12-04T09:18:28;99880.82;;;-1.54
34023;BMP280;20673;48.980;8.138;2023-12-04T09:20:55;99878.08;;;-1.53
34023;BMP280;20673;48.980;8.138;2023-12-04T09:23:21;99867.50;;;-1.54
34023;BMP280;20673;48.980;8.138;2023-12-04T09:25:47;99875.20;;;-1.47
34023;BMP280;20673;48.980;8.138;2023-12-04T09:28:14;99871.34;;;-1.43
34023;BMP280;20673;48.980;8.138;2023-12-04T09:30:40;99870.15;;;-1.37
34023;BMP280;20673;48.980;8.138;2023-12-04T09:33:06;99875.22;;;-1.34
34023;BMP280;20673;48.980;8.138;2023-12-04T09:35:32;99873.19;;;-1.30
34023;BMP280;20673;48.980;8.138;2023-12-04T09:37:58;99869.34;;;-1.26
34023;BMP280;20673;48.980;8.138;2023-12-04T09:40:25;99871.84;;;-1.25
34023;BMP280;20673;48.980;8.138;2023-12-04T09:42:52;99880.43;;;-1.23
34023;BMP280;20673;48.980;8.138;2023-12-04T09:45:20;99880.13;;;-1.20
34023;BMP280;20673;48.980;8.138;2023-12-04T09:47:48;99881.45;;;-1.14
34023;BMP280;20673;48.980;8.138;2023-12-04T09:50:16;99881.03;;;-1.10
34023;BMP280;20673;48.980;8.138;2023-12-04T09:52:44;99882.32;;;-1.03
34023;BMP280;20673;48.980;8.138;2023-12-04T09:55:10;99883.14;;;-1.03
34023;BMP280;20673;48.980;8.138;2023-12-04T09:57:37;99877.97;;;-0.94
34023;BMP280;20673;48.980;8.138;2023-12-04T10:00:05;99864.58;;;-0.90
34023;BMP280;20673;48.980;8.138;2023-12-04T10:02:32;99851.40;;;-0.85
34023;BMP280;20673;48.980;8.138;2023-12-04T10:04:59;99845.11;;;-0.84
34023;BMP280;20673;48.980;8.138;2023-12-04T10:07:25;99836.50;;;-0.83
34023;BMP280;20673;48.980;8.138;2023-12-04T10:09:51;99829.75;;;-0.80
34023;BMP280;20673;48.980;8.138;2023-12-04T10:12:20;99828.00;;;-0.79
34023;BMP280;20673;48.980;8.138;2023-12-04T10:15:09;99838.43;;;-0.75
34023;BMP280;20673;48.980;8.138;2023-12-04T10:17:42;99839.08;;;-0.75
34023;BMP280;20673;48.980;8.138;2023-12-04T10:20:14;99825.12;;;-0.72
34023;BMP280;20673;48.980;8.138;2023-12-04T10:23:01;99812.33;;;-0.72
34023;BMP280;20673;48.980;8.138;2023-12-04T10:25:29;99798.97;;;-0.70
34023;BMP280;20673;48.980;8.138;2023-12-04T10:28:13;99788.43;;;-0.66
34023;BMP280;20673;48.980;8.138;2023-12-04T10:30:41;99771.58;;;-0.65
34023;BMP280;20673;48.980;8.138;2023-12-04T10:33:08;99759.07;;;-0.66
34023;BMP280;20673;48.980;8.138;2023-12-04T10:35:36;99745.83;;;-0.62
34023;BMP280;20673;48.980;8.138;2023-12-04T10:38:08;99747.99;;;-0.58
34023;BMP280;20673;48.980;8.138;2023-12-04T10:40:34;99747.07;;;-0.60
34023;BMP280;20673;48.980;8.138;2023-12-04T10:43:19;99740.75;;;-0.58
34023;BMP280;20673;48.980;8.138;2023-12-04T10:45:49;99743.47;;;-0.52
34023;BMP280;20673;48.980;8.138;2023-12-04T10:48:18;99745.51;;;-0.46
34023;BMP280;20673;48.980;8.138;2023-12-04T10:50:47;99746.76;;;-0.41
34023;BMP280;20673;48.980;8.138;2023-12-04T10:53:15;99743.70;;;-0.39
34023;BMP280;20673;48.980;8.138;2023-12-04T10:55:43;99739.92;;;-0.32
34023;BMP280;20673;48.980;8.138;2023-12-04T10:58:15;99743.36;;;-0.29
34023;BMP280;20673;48.980;8.138;2023-12-04T11:00:45;99741.93;;;-0.25
34023;BMP280;20673;48.980;8.138;2023-12-04T11:03:31;99751.60;;;-0.22
34023;BMP280;20673;48.980;8.138;2023-12-04T11:05:59;99741.05;;;-0.18
34023;BMP280;20673;48.980;8.138;2023-12-04T11:08:28;99726.54;;;-0.21
34023;BMP280;20673;48.980;8.138;2023-12-04T11:11:00;99714.10;;;-0.17
34023;BMP280;20673;48.980;8.138;2023-12-04T11:13:29;99704.46;;;-0.14
34023;BMP280;20673;48.980;8.138;2023-12-04T11:18:37;99688.36;;;-0.11
34023;BMP280;20673;48.980;8.138;2023-12-04T11:21:08;99688.02;;;-0.08
34023;BMP280;20673;48.980;8.138;2023-12-04T11:23:35;99675.54;;;-0.09
34023;BMP280;20673;48.980;8.138;2023-12-04T11:26:03;99674.57;;;-0.03
34023;BMP280;20673;48.980;8.138;2023-12-04T11:28:32;99661.48;;;-0.03
34023;BMP280;20673;48.980;8.138;2023-12-04T11:31:00;99660.68;;;-0.09
34023;BMP280;20673;48.980;8.138;2023-12-04T11:33:36;99668.20;;;-0.03
34023;BMP280;20673;48.980;8.138;2023-12-04T11:36:08;99660.57;;;0.00
34023;BMP280;20673;48.980;8.138;2023-12-04T11:38:35;99663.59;;;-0.05
34023;BMP280;20673;48.980;8.138;2023-12-04T11:41:21;99670.56;;;-0.03
34023;BMP280;20673;48.980;8.138;2023-12-04T11:43:47;99664.88;;;-0.02
34023;BMP280;20673;48.980;8.138;2023-12-04T11:46:20;99657.89;;;0.00
34023;BMP280;20673;48.980;8.138;2023-12-04T11:48:50;99655.45;;;0.02
34023;BMP280;20673;48.980;8.138;2023-12-04T11:54:15;99635.83;;;0.05
34023;BMP280;20673;48.980;8.138;2023-12-04T11:59:26;99626.58;;;0.03
34023;BMP280;20673;48.980;8.138;2023-12-04T12:01:56;99619.98;;;0.08
34023;BMP280;20673;48.980;8.138;2023-12-04T12:04:25;99611.78;;;0.09
34023;BMP280;20673;48.980;8.138;2023-12-04T12:06:52;99610.77;;;0.14
34023;BMP280;20673;48.980;8.138;2023-12-04T12:09:19;99602.61;;;0.20
34023;BMP280;20673;48.980;8.138;2023-12-04T12:11:45;99590.72;;;0.29
34023;BMP280;20673;48.980;8.138;2023-12-04T12:14:11;99586.84;;;0.39
34023;BMP280;20673;48.980;8.138;2023-12-04T12:16:39;99580.34;;;0.45
34023;BMP280;20673;48.980;8.138;2023-12-04T12:19:05;99572.17;;;0.45
34023;BMP280;20673;48.980;8.138;2023-12-04T12:21:31;99561.79;;;0.49
34023;BMP280;20673;48.980;8.138;2023-12-04T12:23:57;99557.20;;;0.48
34023;BMP280;20673;48.980;8.138;2023-12-04T12:26:24;99547.64;;;0.59
34023;BMP280;20673;48.980;8.138;2023-12-04T12:28:50;99552.60;;;0.58
34023;BMP280;20673;48.980;8.138;2023-12-04T12:31:17;99529.81;;;0.56
34023;BMP280;20673;48.980;8.138;2023-12-04T12:33:43;99546.00;;;0.56
34023;BMP280;20673;48.980;8.138;2023-12-04T12:36:10;99533.36;;;0.64
34023;BMP280;20673;48.980;8.138;2023-12-04T12:38:37;99520.43;;;0.61
34023;BMP280;20673;48.980;8.138;2023-12-04T12:41:09;99527.89;;;0.63
34023;BMP280;20673;48.980;8.138;2023-12-04T12:43:37;99515.58;;;0.67
34023;BMP280;20673;48.980;8.138;2023-12-04T12:46:05;99508.71;;;0.63
34023;BMP280;20673;48.980;8.138;2023-12-04T12:48:33;99511.25;;;0.73
34023;BMP280;20673;48.980;8.138;2023-12-04T12:50:59;99503.93;;;0.74
34023;BMP280;20673;48.980;8.138;2023-12-04T12:53:25;99500.68;;;0.79
34023;BMP280;20673;48.980;8.138;2023-12-04T12:55:51;99501.69;;;0.75
34023;BMP280;20673;48.980;8.138;2023-12-04T12:58:18;99495.18;;;0.75
34023;BMP280;20673;48.980;8.138;2023-12-04T13:00:46;99488.53;;;0.76
34023;BMP280;20673;48.980;8.138;2023-12-04T13:03:17;99487.47;;;0.78
34023;BMP280;20673;48.980;8.138;2023-12-04T13:05:43;99478.26;;;0.81
34023;BMP280;20673;48.980;8.138;2023-12-04T13:08:10;99470.92;;;0.82
34023;BMP280;20673;48.980;8.138;2023-12-04T13:10:37;99462.32;;;0.92
34023;BMP280;20673;48.980;8.138;2023-12-04T13:13:09;99459.04;;;0.94
34023;BMP280;20673;48.980;8.138;2023-12-04T13:15:32;99461.45;;;0.96
34023;BMP280;20673;48.980;8.138;2023-12-04T13:17:58;99458.02;;;0.95
34023;BMP280;20673;48.980;8.138;2023-12-04T13:20:24;99453.37;;;0.97
34023;BMP280;20673;48.980;8.138;2023-12-04T13:22:50;99451.72;;;0.98
34023;BMP280;20673;48.980;8.138;2023-12-04T13:25:16;99440.89;;;0.94
34023;BMP280;20673;48.980;8.138;2023-12-04T13:27:43;99433.58;;;0.90
34023;BMP280;20673;48.980;8.138;2023-12-04T13:30:10;99425.43;;;0.92
34023;BMP280;20673;48.980;8.138;2023-12-04T13:32:37;99429.48;;;0.91
34023;BMP280;20673;48.980;8.138;2023-12-04T13:35:05;99423.58;;;0.89
34023;BMP280;20673;48.980;8.138;2023-12-04T13:37:32;99424.06;;;0.93
34023;BMP280;20673;48.980;8.138;2023-12-04T13:39:59;99420.45;;;0.96
34023;BMP280;20673;48.980;8.138;2023-12-04T13:42:27;99416.51;;;0.94
34023;BMP280;20673;48.980;8.138;2023-12-04T13:45:12;99409.69;;;0.95
34023;BMP280;20673;48.980;8.138;2023-12-04T13:47:41;99400.03;;;0.98
34023;BMP280;20673;48.980;8.138;2023-12-04T13:50:08;99398.61;;;1.02
34023;BMP280;20673;48.980;8.138;2023-12-04T13:52:36;99393.97;;;1.06
34023;BMP280;20673;48.980;8.138;2023-12-04T13:55:02;99386.47;;;1.07
34023;BMP280;20673;48.980;8.138;2023-12-04T13:57:30;99377.69;;;1.06
34023;BMP280;20673;48.980;8.138;2023-12-04T14:00:01;99373.39;;;1.05
34023;BMP280;20673;48.980;8.138;2023-12-04T14:02:27;99365.35;;;1.04
34023;BMP280;20673;48.980;8.138;2023-12-04T14:04:53;99361.73;;;0.96
34023;BMP280;20673;48.980;8.138;2023-12-04T14:07:19;99358.11;;;0.94
34023;BMP280;20673;48.980;8.138;2023-12-04T14:09:45;99353.59;;;0.93
34023;BMP280;20673;48.980;8.138;2023-12-04T14:12:13;99347.24;;;0.88
34023;BMP280;20673;48.980;8.138;2023-12-04T14:14:41;99345.83;;;0.89